createdAt,value
2023-03-13T00:01:48.719Z,45.23
2023-03-13T00:04:15.611Z,41.33
2023-03-13T00:06:42.983Z,30.83
2023-03-13T00:09:19.348Z,42.23
2023-03-13T00:11:47.138Z,31.13
2023-03-13T00:14:14.067Z,47.07
2023-03-13T00:16:43.279Z,42.60
2023-03-13T00:19:11.025Z,27.53
2023-03-13T00:21:38.185Z,46.47
2023-03-13T00:24:05.550Z,34.00
2023-03-13T00:26:34.983Z,49.30
2023-03-13T00:29:02.027Z,43.90
2023-03-13T00:31:33.924Z,39.63
2023-03-13T00:34:03.521Z,43.53
2023-03-13T00:36:38.695Z,52.83
2023-03-13T00:39:07.329Z,51.57
2023-03-13T00:41:36.357Z,41.73
2023-03-13T00:44:03.727Z,39.83
2023-03-13T00:46:31.665Z,56.70
2023-03-13T00:48:58.643Z,42.80
2023-03-13T00:51:27.598Z,47.50
2023-03-13T00:53:56.650Z,46.97
2023-03-13T00:56:23.676Z,38.00
2023-03-13T00:58:50.910Z,49.10
2023-03-13T01:01:21.508Z,37.43
2023-03-13T01:03:52.741Z,47.37
2023-03-13T01:06:25.281Z,34.10
2023-03-13T01:08:52.986Z,50.77
2023-03-13T01:11:23.818Z,46.37
2023-03-13T01:13:54.389Z,46.33
2023-03-13T01:16:23.220Z,39.30
2023-03-13T01:18:57.002Z,42.60
2023-03-13T01:21:24.685Z,31.93
2023-03-13T01:23:53.495Z,46.30
2023-03-13T01:26:21.891Z,39.50
2023-03-13T01:28:49.480Z,38.63
2023-03-13T01:31:23.475Z,42.97
2023-03-13T01:33:57.231Z,43.60
2023-03-13T01:36:25.183Z,37.03
2023-03-13T01:38:57.584Z,48.00
2023-03-13T01:41:26.635Z,55.37
2023-03-13T01:43:55.466Z,38.50
2023-03-13T01:46:28.044Z,52.80
2023-03-13T01:49:02.703Z,35.10
2023-03-13T01:52:02.258Z,33.60
2023-03-13T01:54:37.677Z,48.07
2023-03-13T01:57:09.535Z,37.23
2023-03-13T01:59:48.669Z,45.40
2023-03-13T02:02:16.744Z,49.93
2023-03-13T02:04:50.095Z,48.63
2023-03-13T02:07:23.992Z,53.43
2023-03-13T02:09:53.725Z,49.53
2023-03-13T02:12:31.474Z,43.33
2023-03-13T02:15:01.670Z,34.63
2023-03-13T02:17:30.879Z,48.27
2023-03-13T02:19:57.840Z,51.10
2023-03-13T02:22:47.236Z,49.50
2023-03-13T02:25:45.624Z,44.33
2023-03-13T02:28:35.785Z,39.90
2023-03-13T02:31:02.804Z,48.27
2023-03-13T02:33:38.971Z,42.63
2023-03-13T02:36:07.713Z,47.87
2023-03-13T02:38:55.533Z,38.77
2023-03-13T02:41:25.745Z,36.07
2023-03-13T02:43:52.659Z,52.90
2023-03-13T02:46:20.916Z,41.93
2023-03-13T02:48:54.652Z,43.37
2023-03-13T02:51:39.223Z,51.90
2023-03-13T02:54:21.803Z,44.33
2023-03-13T02:56:54.978Z,34.23
2023-03-13T02:59:25.435Z,42.17
2023-03-13T03:01:57.331Z,47.77
2023-03-13T03:04:26.313Z,56.13
2023-03-13T03:06:58.744Z,40.37
2023-03-13T03:09:26.203Z,31.43
2023-03-13T03:11:56.066Z,48.37
2023-03-13T03:14:25.274Z,38.07
2023-03-13T03:16:54.368Z,18.33
2023-03-13T03:19:23.341Z,34.70
2023-03-13T03:21:54.729Z,32.87
2023-03-13T03:24:21.635Z,42.73
2023-03-13T03:26:53.026Z,46.63
2023-03-13T03:29:22.362Z,37.20
2023-03-13T03:31:52.436Z,36.70
2023-03-13T03:34:20.689Z,28.87
2023-03-13T03:36:47.530Z,32.93
2023-03-13T03:39:14.385Z,48.27
2023-03-13T03:41:46.315Z,46.80
2023-03-13T03:44:16.158Z,47.53
2023-03-13T03:46:48.036Z,31.97
2023-03-13T03:49:14.943Z,48.67
2023-03-13T03:51:44.354Z,39.10
2023-03-13T03:54:11.211Z,42.13
2023-03-13T03:56:38.043Z,33.17
2023-03-13T03:59:04.888Z,23.87
2023-03-13T04:01:31.702Z,39.00
2023-03-13T04:03:58.548Z,42.40
2023-03-13T04:06:27.942Z,34.37
2023-03-13T04:08:58.306Z,42.60
2023-03-13T04:11:25.188Z,33.80
2023-03-13T04:13:54.307Z,29.13
2023-03-13T04:16:21.312Z,51.73
2023-03-13T04:18:48.235Z,35.43
2023-03-13T04:21:15.101Z,33.03
2023-03-13T04:23:43.999Z,36.53
2023-03-13T04:26:10.849Z,39.97
2023-03-13T04:28:37.716Z,34.57
2023-03-13T04:31:07.185Z,29.90
2023-03-13T04:33:34.336Z,33.93
2023-03-13T04:36:01.314Z,38.13
2023-03-13T04:38:28.170Z,43.43
2023-03-13T04:40:57.494Z,39.87
2023-03-13T04:43:26.576Z,23.70
2023-03-13T04:45:55.999Z,32.10
2023-03-13T04:48:25.183Z,32.63
2023-03-13T04:50:52.076Z,31.03
2023-03-13T04:53:19.397Z,24.50
2023-03-13T04:55:48.778Z,27.40
2023-03-13T04:58:15.611Z,30.93
2023-03-13T05:00:42.786Z,28.30
2023-03-13T05:03:09.628Z,32.90
2023-03-13T05:05:36.628Z,30.63
2023-03-13T05:08:03.696Z,30.83
2023-03-13T05:10:35.287Z,31.07
2023-03-13T05:13:04.192Z,42.37
2023-03-13T05:15:33.418Z,18.40
2023-03-13T05:18:02.490Z,27.40
2023-03-13T05:20:31.875Z,20.37
2023-03-13T05:23:01.259Z,32.63
2023-03-13T05:25:28.100Z,28.03
2023-03-13T05:27:54.955Z,26.80
2023-03-13T05:30:24.356Z,40.93
2023-03-13T05:32:51.299Z,28.57
2023-03-13T05:35:18.206Z,30.33
2023-03-13T05:37:46.236Z,25.43
2023-03-13T05:40:13.858Z,23.23
2023-03-13T05:42:40.831Z,24.73
2023-03-13T05:45:11.926Z,22.03
2023-03-13T05:47:43.866Z,18.17
2023-03-13T05:50:13.747Z,26.77
2023-03-13T05:52:40.612Z,35.97
2023-03-13T05:55:10.092Z,22.73
2023-03-13T05:57:37.023Z,22.17
2023-03-13T06:00:07.351Z,18.27
2023-03-13T06:02:34.345Z,37.00
2023-03-13T06:05:03.950Z,22.57
2023-03-13T06:07:30.799Z,21.23
2023-03-13T06:09:59.765Z,19.27
2023-03-13T06:12:28.862Z,18.27
2023-03-13T06:14:55.844Z,27.13
2023-03-13T06:17:25.607Z,30.00
2023-03-13T06:19:54.784Z,22.40
2023-03-13T06:22:24.244Z,20.53
2023-03-13T06:24:51.154Z,19.73
2023-03-13T06:27:18.128Z,20.27
2023-03-13T06:29:49.534Z,9.50
2023-03-13T06:32:22.114Z,14.70
2023-03-13T06:34:49.143Z,14.67
2023-03-13T06:37:16.049Z,18.07
2023-03-13T06:39:42.945Z,12.47
2023-03-13T06:42:14.470Z,21.77
2023-03-13T06:44:41.912Z,11.47
2023-03-13T06:47:08.853Z,20.07
2023-03-13T06:49:38.099Z,14.10
2023-03-13T06:52:05.244Z,9.93
2023-03-13T06:54:32.106Z,9.13
2023-03-13T06:57:01.020Z,10.63
2023-03-13T06:59:28.096Z,8.60
2023-03-13T07:01:55.121Z,10.37
2023-03-13T07:04:22.084Z,12.03
2023-03-13T07:06:51.089Z,7.43
2023-03-13T07:09:22.662Z,12.70
2023-03-13T07:11:49.571Z,2.60
2023-03-13T07:14:18.673Z,3.83
2023-03-13T07:16:46.965Z,5.73
2023-03-13T07:19:15.124Z,7.40
2023-03-13T07:21:42.204Z,12.43
2023-03-13T07:24:09.261Z,2.70
2023-03-13T07:26:46.531Z,9.20
2023-03-13T07:29:21.335Z,10.03
2023-03-13T07:31:50.453Z,8.13
2023-03-13T07:34:19.689Z,8.73
2023-03-13T07:36:46.620Z,5.07
2023-03-13T07:39:13.448Z,4.23
2023-03-13T07:41:43.308Z,4.43
2023-03-13T07:44:12.801Z,12.27
2023-03-13T07:46:41.992Z,8.93
2023-03-13T07:49:11.209Z,9.20
2023-03-13T07:51:43.960Z,5.10
2023-03-13T07:54:11.930Z,6.13
2023-03-13T07:56:43.815Z,9.10
2023-03-13T07:59:11.555Z,8.13
2023-03-13T08:01:38.634Z,3.37
2023-03-13T08:04:12.774Z,9.43
2023-03-13T08:06:41.119Z,4.47
2023-03-13T08:09:08.663Z,4.17
2023-03-13T08:11:38.694Z,11.57
2023-03-13T08:14:05.560Z,3.80
2023-03-13T08:16:35.176Z,5.63
2023-03-13T08:19:05.800Z,9.23
2023-03-13T08:21:38.705Z,10.83
2023-03-13T08:24:11.412Z,6.60
2023-03-13T08:26:41.132Z,6.33
2023-03-13T08:29:12.308Z,5.63
2023-03-13T08:31:55.666Z,16.23
2023-03-13T08:34:22.565Z,4.97
2023-03-13T08:36:53.099Z,5.87
2023-03-13T08:39:22.929Z,5.07
2023-03-13T08:41:50.112Z,6.13
2023-03-13T08:44:20.035Z,8.33
2023-03-13T08:46:49.114Z,10.23
2023-03-13T08:49:17.688Z,7.37
2023-03-13T08:51:47.032Z,6.53
2023-03-13T08:54:16.217Z,5.90
2023-03-13T08:56:43.957Z,7.73
2023-03-13T08:59:11.046Z,7.87
2023-03-13T09:01:38.031Z,5.83
2023-03-13T09:04:06.184Z,6.47
2023-03-13T09:06:40.255Z,14.10
2023-03-13T09:09:08.142Z,7.13
2023-03-13T09:11:40.308Z,12.63
2023-03-13T09:14:08.118Z,5.23
2023-03-13T09:16:38.740Z,5.23
2023-03-13T09:19:05.979Z,7.50
2023-03-13T09:21:35.047Z,5.10
2023-03-13T09:24:05.075Z,5.00
2023-03-13T09:26:32.010Z,6.70
2023-03-13T09:28:59.324Z,9.90
2023-03-13T09:31:31.971Z,6.17
2023-03-13T09:34:02.094Z,7.80
2023-03-13T09:36:31.268Z,16.17
2023-03-13T09:39:02.700Z,9.07
2023-03-13T09:41:57.308Z,7.07
2023-03-13T09:44:30.095Z,6.90
2023-03-13T09:47:30.701Z,7.70
2023-03-13T09:50:07.478Z,12.07
2023-03-13T09:52:41.100Z,7.57
2023-03-13T09:55:24.779Z,8.70
2023-03-13T09:58:02.607Z,10.70
2023-03-13T10:00:30.273Z,7.97
2023-03-13T10:03:07.633Z,7.77
2023-03-13T10:05:38.364Z,6.87
2023-03-13T10:08:24.512Z,12.33
2023-03-13T10:11:12.323Z,7.40
2023-03-13T10:13:50.844Z,8.33
2023-03-13T10:16:32.591Z,17.83
2023-03-13T10:19:14.032Z,9.53
2023-03-13T10:21:47.274Z,8.03
2023-03-13T10:24:51.128Z,11.00
2023-03-13T10:27:20.535Z,7.73
2023-03-13T10:29:47.502Z,7.37
2023-03-13T10:32:17.266Z,6.90
2023-03-13T10:35:02.999Z,8.00
2023-03-13T10:37:35.947Z,9.43
2023-03-13T10:40:38.757Z,7.53
2023-03-13T10:43:22.313Z,7.33
2023-03-13T10:45:56.017Z,8.83
2023-03-13T10:48:31.173Z,11.60
2023-03-13T10:51:02.358Z,7.03
2023-03-13T10:53:29.389Z,6.30
2023-03-13T10:56:05.953Z,7.67
2023-03-13T10:58:46.672Z,8.20
2023-03-13T11:01:25.473Z,6.70
2023-03-13T11:03:57.696Z,6.07
2023-03-13T11:06:24.544Z,8.53
2023-03-13T11:09:04.937Z,5.23
2023-03-13T11:11:50.699Z,7.20
2023-03-13T11:14:26.707Z,9.50
2023-03-13T11:17:04.408Z,3.93
2023-03-13T11:20:06.087Z,5.37
2023-03-13T11:22:48.523Z,5.63
2023-03-13T11:25:52.476Z,12.23
2023-03-13T11:28:59.777Z,3.03
2023-03-13T11:31:45.046Z,3.53
2023-03-13T11:34:27.769Z,3.80
2023-03-13T11:37:02.618Z,7.17
2023-03-13T11:39:59.172Z,4.97
2023-03-13T11:43:17.828Z,4.03
2023-03-13T11:45:57.614Z,3.70
2023-03-13T11:48:48.455Z,4.27
2023-03-13T11:51:25.115Z,8.57
2023-03-13T11:53:57.792Z,12.67
2023-03-13T11:56:47.347Z,7.87
2023-03-13T11:59:55.689Z,4.70
2023-03-13T12:03:09.101Z,3.40
2023-03-13T12:05:47.080Z,5.40
2023-03-13T12:08:27.238Z,4.80
2023-03-13T12:11:17.216Z,11.30
2023-03-13T12:13:59.673Z,4.60
2023-03-13T12:16:58.267Z,4.43
2023-03-13T12:19:42.895Z,5.57
2023-03-13T12:22:31.105Z,2.57
2023-03-13T12:25:13.334Z,2.20
2023-03-13T12:27:46.457Z,2.30
2023-03-13T12:30:45.593Z,3.83
2023-03-13T12:33:32.486Z,2.53
2023-03-13T12:36:29.343Z,4.43
2023-03-13T12:39:23.093Z,4.70
2023-03-13T12:42:26.296Z,2.43
2023-03-13T12:44:57.336Z,3.23
2023-03-13T12:47:46.550Z,2.70
2023-03-13T12:50:19.762Z,1.70
2023-03-13T12:53:20.393Z,1.80
2023-03-13T12:56:20.365Z,1.77
2023-03-13T12:58:53.206Z,5.37
2023-03-13T13:01:30.824Z,5.60
2023-03-13T13:04:11.111Z,2.97
2023-03-13T13:07:27.649Z,3.97
2023-03-13T13:10:09.537Z,1.57
2023-03-13T13:12:46.621Z,2.20
2023-03-13T13:15:29.226Z,2.83
2023-03-13T13:17:58.873Z,3.60
2023-03-13T13:20:45.016Z,1.90
2023-03-13T13:23:38.721Z,3.47
2023-03-13T13:26:30.439Z,1.83
2023-03-13T13:29:22.244Z,5.00
2023-03-13T13:31:51.824Z,3.93
2023-03-13T13:34:31.013Z,3.90
2023-03-13T13:37:00.336Z,12.67
2023-03-13T13:39:39.831Z,4.00
2023-03-13T13:42:31.570Z,3.60
2023-03-13T13:45:16.478Z,1.80
2023-03-13T13:48:12.779Z,6.60
2023-03-13T13:50:39.744Z,1.47
2023-03-13T13:53:42.350Z,3.53
2023-03-13T13:56:38.430Z,3.73
2023-03-13T13:59:20.298Z,3.67
2023-03-13T14:01:52.778Z,4.50
2023-03-13T14:04:35.204Z,3.20
2023-03-13T14:07:08.687Z,1.90
2023-03-13T14:09:52.565Z,3.40
2023-03-13T14:12:28.107Z,2.70
2023-03-13T14:15:33.799Z,3.33
2023-03-13T14:18:13.332Z,5.90
2023-03-13T14:21:00.360Z,2.53
2023-03-13T14:23:42.671Z,1.77
2023-03-13T14:26:24.894Z,2.03
2023-03-13T14:29:05.383Z,4.07
2023-03-13T14:31:38.860Z,3.60
2023-03-13T14:34:12.559Z,3.10
2023-03-13T14:37:17.111Z,7.87
2023-03-13T14:39:49.144Z,7.97
2023-03-13T14:42:24.394Z,9.93
2023-03-13T14:44:59.591Z,4.60
2023-03-13T14:47:31.226Z,6.43
2023-03-13T14:50:09.948Z,2.10
2023-03-13T14:52:39.896Z,3.60
2023-03-13T14:55:27.236Z,3.47
2023-03-13T14:58:31.772Z,2.00
2023-03-13T15:01:25.937Z,2.00
2023-03-13T15:03:53.017Z,1.20
2023-03-13T15:06:23.412Z,2.20
2023-03-13T15:09:10.119Z,2.00
2023-03-13T15:11:42.056Z,7.00
2023-03-13T15:14:39.510Z,3.00
2023-03-13T15:17:22.512Z,1.57
2023-03-13T15:19:58.077Z,6.63
2023-03-13T15:22:39.575Z,1.77
2023-03-13T15:25:20.364Z,4.20
2023-03-13T15:27:48.241Z,2.20
2023-03-13T15:30:25.444Z,3.20
2023-03-13T15:32:54.892Z,3.50
2023-03-13T15:35:32.874Z,1.73
2023-03-13T15:38:01.999Z,5.43
2023-03-13T15:40:30.829Z,2.60
2023-03-13T15:43:00.343Z,3.70
2023-03-13T15:45:31.768Z,8.97
2023-03-13T15:48:00.692Z,2.37
2023-03-13T15:50:30.946Z,2.80
2023-03-13T15:52:58.783Z,3.60
2023-03-13T15:55:27.627Z,2.80
2023-03-13T15:57:59.878Z,2.73
2023-03-13T16:00:27.367Z,4.40
2023-03-13T16:02:56.320Z,4.40
2023-03-13T16:05:26.294Z,10.80
2023-03-13T16:07:55.529Z,3.17
2023-03-13T16:10:27.924Z,2.27
2023-03-13T16:12:57.218Z,3.90
2023-03-13T16:15:29.217Z,1.70
2023-03-13T16:17:56.237Z,2.20
2023-03-13T16:20:24.385Z,4.33
2023-03-13T16:22:53.590Z,1.50
2023-03-13T16:25:21.532Z,2.40
2023-03-13T16:27:49.765Z,2.03
2023-03-13T16:30:29.340Z,1.80
2023-03-13T16:32:57.192Z,9.33
2023-03-13T16:35:26.864Z,2.37
2023-03-13T16:38:00.882Z,6.83
2023-03-13T16:40:33.491Z,2.50
2023-03-13T16:43:00.933Z,10.73
2023-03-13T16:45:28.087Z,1.90
2023-03-13T16:47:57.258Z,1.87
2023-03-13T16:50:35.693Z,4.53
2023-03-13T16:53:03.480Z,5.80
2023-03-13T16:55:36.156Z,2.83
2023-03-13T16:58:04.231Z,3.47
2023-03-13T17:00:32.804Z,4.87
2023-03-13T17:03:02.555Z,1.93
2023-03-13T17:05:32.106Z,3.47
2023-03-13T17:07:59.149Z,4.30
2023-03-13T17:10:32.582Z,1.97
2023-03-13T17:13:06.672Z,5.40
2023-03-13T17:15:33.679Z,3.43
2023-03-13T17:18:03.246Z,1.10
2023-03-13T17:20:32.724Z,1.63
2023-03-13T17:23:01.058Z,7.73
2023-03-13T17:25:27.952Z,3.57
2023-03-13T17:27:54.968Z,1.97
2023-03-13T17:30:30.700Z,1.33
2023-03-13T17:33:01.143Z,1.57
2023-03-13T17:35:31.066Z,6.83
2023-03-13T17:37:58.048Z,2.30
2023-03-13T17:40:31.234Z,2.17
2023-03-13T17:43:03.728Z,10.10
2023-03-13T17:45:30.905Z,2.13
2023-03-13T17:47:57.820Z,1.73
2023-03-13T17:50:27.377Z,1.27
2023-03-13T17:52:55.499Z,12.87
2023-03-13T17:55:25.250Z,4.10
2023-03-13T17:57:53.326Z,12.43
2023-03-13T18:00:30.193Z,3.13
2023-03-13T18:02:58.945Z,3.03
2023-03-13T18:05:29.066Z,2.20
2023-03-13T18:07:58.198Z,2.60
2023-03-13T18:10:30.063Z,2.53
2023-03-13T18:12:57.843Z,4.20
2023-03-13T18:15:27.509Z,2.03
2023-03-13T18:17:54.894Z,1.90
2023-03-13T18:20:29.637Z,4.00
2023-03-13T18:23:00.344Z,2.73
2023-03-13T18:25:31.516Z,2.10
2023-03-13T18:28:01.531Z,1.90
2023-03-13T18:30:28.785Z,4.00
2023-03-13T18:32:58.219Z,2.57
2023-03-13T18:35:25.417Z,9.53
2023-03-13T18:37:54.419Z,3.23
2023-03-13T18:40:28.695Z,1.57
2023-03-13T18:42:55.764Z,1.47
2023-03-13T18:45:25.940Z,3.13
2023-03-13T18:47:55.418Z,3.73
2023-03-13T18:50:29.366Z,1.40
2023-03-13T18:53:01.013Z,2.77
2023-03-13T18:55:32.478Z,1.87
2023-03-13T18:57:59.302Z,2.30
2023-03-13T19:00:33.618Z,7.33
2023-03-13T19:03:03.407Z,1.80
2023-03-13T19:05:33.262Z,2.77
2023-03-13T19:08:04.718Z,1.80
2023-03-13T19:10:32.803Z,2.87
2023-03-13T19:13:01.921Z,3.60
2023-03-13T19:15:31.780Z,1.70
2023-03-13T19:18:03.630Z,2.43
2023-03-13T19:20:31.092Z,1.67
2023-03-13T19:23:00.597Z,1.70
2023-03-13T19:25:29.958Z,1.73
2023-03-13T19:27:56.952Z,1.60
2023-03-13T19:30:27.059Z,3.27
2023-03-13T19:32:54.056Z,9.50
2023-03-13T19:35:22.061Z,2.80
2023-03-13T19:37:51.951Z,4.00
2023-03-13T19:40:26.265Z,3.47
2023-03-13T19:42:53.161Z,1.73
2023-03-13T19:45:22.848Z,4.83
2023-03-13T19:47:50.287Z,3.67
2023-03-13T19:50:27.976Z,1.53
2023-03-13T19:52:54.865Z,2.73
2023-03-13T19:55:21.794Z,5.30
2023-03-13T19:57:48.681Z,1.47
2023-03-13T20:00:25.733Z,1.67
2023-03-13T20:02:55.149Z,2.50
2023-03-13T20:05:22.867Z,3.17
2023-03-13T20:07:49.906Z,1.60
2023-03-13T20:10:19.800Z,1.77
2023-03-13T20:12:49.296Z,2.97
2023-03-13T20:15:21.272Z,2.67
2023-03-13T20:17:48.710Z,6.90
2023-03-13T20:20:16.189Z,1.80
2023-03-13T20:22:45.530Z,3.63
2023-03-13T20:25:12.392Z,7.90
2023-03-13T20:27:39.332Z,1.77
2023-03-13T20:30:11.877Z,3.33
2023-03-13T20:32:56.791Z,3.53
2023-03-13T20:35:26.220Z,1.60
2023-03-13T20:37:54.744Z,3.50
2023-03-13T20:40:23.954Z,6.47
2023-03-13T20:42:51.396Z,1.80
2023-03-13T20:45:18.289Z,12.10
2023-03-13T20:47:47.644Z,2.47
2023-03-13T20:50:14.558Z,3.53
2023-03-13T20:52:43.611Z,7.17
2023-03-13T20:55:10.492Z,7.33
2023-03-13T20:57:39.493Z,4.00
2023-03-13T21:00:07.351Z,8.73
2023-03-13T21:02:34.224Z,3.27
2023-03-13T21:05:04.349Z,2.43
2023-03-13T21:07:32.294Z,1.70
2023-03-13T21:10:01.436Z,6.53
2023-03-13T21:12:29.082Z,2.17
2023-03-13T21:14:55.973Z,2.50
2023-03-13T21:17:28.699Z,1.83
2023-03-13T21:19:55.659Z,2.20
2023-03-13T21:22:23.884Z,8.37
2023-03-13T21:24:51.012Z,1.90
2023-03-13T21:27:17.877Z,2.07
2023-03-13T21:29:47.235Z,2.43
2023-03-13T21:32:15.164Z,3.70
2023-03-13T21:34:44.640Z,3.17
2023-03-13T21:37:12.957Z,5.50
2023-03-13T21:39:42.779Z,2.23
2023-03-13T21:42:15.490Z,3.20
2023-03-13T21:44:45.547Z,2.63
2023-03-13T21:47:24.141Z,1.90
2023-03-13T21:49:55.075Z,4.93
2023-03-13T21:52:23.476Z,4.63
2023-03-13T21:54:56.150Z,9.10
2023-03-13T21:57:25.237Z,7.33
2023-03-13T21:59:52.064Z,2.93
2023-03-13T22:02:18.950Z,5.83
2023-03-13T22:04:45.894Z,2.53
2023-03-13T22:07:15.223Z,9.27
2023-03-13T22:09:42.101Z,8.30
2023-03-13T22:12:11.421Z,8.33
2023-03-13T22:14:38.277Z,4.67
2023-03-13T22:17:05.113Z,6.10
2023-03-13T22:19:32.015Z,2.70
2023-03-13T22:22:00.791Z,2.30
2023-03-13T22:24:27.646Z,5.53
2023-03-13T22:26:54.462Z,3.80
2023-03-13T22:29:22.764Z,3.27
2023-03-13T22:31:52.595Z,3.37
2023-03-13T22:34:21.696Z,3.30
2023-03-13T22:36:48.531Z,2.23
2023-03-13T22:39:20.285Z,4.53
2023-03-13T22:41:49.520Z,5.13
2023-03-13T22:44:16.863Z,2.00
2023-03-13T22:46:43.763Z,2.30
2023-03-13T22:49:15.146Z,3.80
2023-03-13T22:51:44.588Z,3.23
2023-03-13T22:54:11.519Z,6.43
2023-03-13T22:56:38.392Z,6.47
2023-03-13T22:59:09.888Z,4.20
2023-03-13T23:01:36.833Z,3.57
2023-03-13T23:04:08.488Z,2.97
2023-03-13T23:06:35.360Z,1.80
2023-03-13T23:09:02.383Z,15.03
2023-03-13T23:11:31.467Z,2.17
2023-03-13T23:13:58.390Z,4.60
2023-03-13T23:16:27.992Z,3.70
2023-03-13T23:18:54.950Z,6.93
2023-03-13T23:21:21.784Z,2.00
2023-03-13T23:23:48.900Z,2.27
2023-03-13T23:26:18.260Z,2.27
2023-03-13T23:28:47.587Z,2.30
2023-03-13T23:31:19.135Z,7.40
2023-03-13T23:33:47.064Z,3.50
2023-03-13T23:36:17.672Z,5.80
2023-03-13T23:38:49.162Z,5.87
2023-03-13T23:41:19.366Z,2.53
2023-03-13T23:43:48.862Z,2.70
2023-03-13T23:46:22.453Z,2.50
2023-03-13T23:48:52.892Z,4.40
2023-03-13T23:51:22.067Z,2.20
2023-03-13T23:53:51.692Z,5.73
2023-03-13T23:56:25.277Z,5.40
2023-03-13T23:58:55.900Z,3.70
